Forside
METAR-TAF:

METAR-TAF

Lufthavne :

Billund Lufthavn

Billund, Danmark

Breddekreds: 55-44N, længdekreds: 009-10E, højde: 75 m

Aktuelle vejr

Denne rapport blev lavet for 36 minutter siden, kl. 22:20 UTC
Vind 10 kt fra nordvest
Temperatur 6°C
Fugtighed 100%
Tryk 1028 hPa
Sigt 10 km eller mere

METAR: EKBI 222220Z AUTO 31010KT 9999 OVC005/// 06/06 Q1028

Tid: 23:56 (22:56 UTC)

Vejrudsigter

Denne rapport blev lavet for 5 timer og 49 minutter siden, kl. 17:07 UTC
Foreløbig gælder fra 22 på 18 UTC til 23 på 18 UTC
Vind 8 kt fra vest
Sigt: 8000 m
Spredte skyer i en højde af 500 ft
Brudte skyer i en højde af 1000 ft
let finregn, regn
Midlertidig
fra 22 på 18 UTC til 23 på 18 UTC
Sigt: 2500 m
Brudte skyer i en højde af 400 ft
dis

TAF: EKBI 221707Z 2218/2318 28008KT 8000 -DZRA SCT005 BKN010 TEMPO 2218/2318 2500 BR BKN004

Vejrobservationer og prognoser fra mere end 4000 lufthavne (METAR og TAF).

De gule og røde prikker repræsenterer de meteorologiske stationer.

Flyt musen over at se navnet på stationen.

Så klik over at se vejr observationer og prognoser.

At skifte det kort: Klik på de grønne knapper med et sort kors for at zoome ind; på den grønne knap med en bindestreg for at zoome ud; eller på de grønne pile for tilstødende kort.


METAR-TAF: